Melrose, Louisiana
Current Conditions -  °F | °C
As of 7:15 PM on Monday 20 Oct 2014 (Local Time) from KIER Reporting Station
Clear Clear  
Wind Chill: 62°   Ceiling: Unl
Heat Index: 62°   Visibility: 10mi
Dew Point: 57°   Wind: 0mph
Humidity: 84%   Direction: NA
Pressure: 30.03"   Gusts: NA
Location:  31.6°N, 92.97°W
Report Text: KIER 210015Z AUTO 00000KT 10SM CLR 17/14 A3003 RMK AO2 T01680141
Loading
Personal Weather Stations






























Interactive Weather Map
Tropical Storm Tracking
New forecast layout! Learn more

10-Day Weather Forecast

Advertisements
Track Severe Weather on mobile